createdAt,value
2022-09-09T00:02:59.466Z,14.76
2022-09-09T00:12:59.336Z,14.78
2022-09-09T00:22:59.322Z,14.83
2022-09-09T00:32:59.295Z,14.81
2022-09-09T00:42:59.328Z,14.78
2022-09-09T00:52:59.304Z,14.64
2022-09-09T01:02:59.398Z,14.52
2022-09-09T01:12:59.305Z,14.52
2022-09-09T01:22:59.305Z,14.46
2022-09-09T01:32:59.273Z,14.48
2022-09-09T01:42:59.287Z,14.43
2022-09-09T01:52:59.263Z,14.33
2022-09-09T02:02:59.274Z,14.34
2022-09-09T02:12:59.233Z,14.44
2022-09-09T02:22:59.286Z,14.42
2022-09-09T02:32:59.254Z,14.44
2022-09-09T02:42:59.280Z,14.37
2022-09-09T02:52:59.197Z,14.19
2022-09-09T03:02:59.225Z,14.14
2022-09-09T03:12:59.195Z,14.06
2022-09-09T03:22:59.202Z,14.09
2022-09-09T03:32:59.167Z,14.19
2022-09-09T03:42:59.198Z,14.32
2022-09-09T03:52:59.163Z,14.36
2022-09-09T04:02:59.166Z,14.38
2022-09-09T04:12:59.157Z,14.35
2022-09-09T04:22:59.224Z,14.32
2022-09-09T04:32:59.133Z,14.32
2022-09-09T04:42:59.113Z,14.39
2022-09-09T04:52:59.118Z,14.45
2022-09-09T05:02:59.132Z,14.48
2022-09-09T05:12:59.106Z,14.5
2022-09-09T05:22:59.095Z,14.56
2022-09-09T05:32:59.054Z,14.56
2022-09-09T05:42:59.110Z,14.64
2022-09-09T05:52:59.097Z,14.75
2022-09-09T06:02:59.149Z,15.03
2022-09-09T06:12:59.042Z,15.34
2022-09-09T06:22:59.059Z,15.44
2022-09-09T06:32:59.010Z,15.64
2022-09-09T06:42:59.032Z,15.78
2022-09-09T06:52:58.983Z,15.56
2022-09-09T07:02:59.047Z,15.41
2022-09-09T07:12:58.989Z,15.16
2022-09-09T07:22:59.022Z,15.03
2022-09-09T07:32:58.965Z,14.86
2022-09-09T07:42:58.967Z,14.84
2022-09-09T07:52:58.942Z,14.8
2022-09-09T08:02:58.999Z,14.8
2022-09-09T08:13:15.196Z,15.01
2022-09-09T08:22:58.987Z,15.22
2022-09-09T08:32:58.916Z,15.1
2022-09-09T08:42:58.944Z,15.26
2022-09-09T08:52:58.908Z,15.43
2022-09-09T09:02:58.953Z,15.75
2022-09-09T09:12:58.906Z,16.2
2022-09-09T09:22:58.898Z,16.17
2022-09-09T09:32:58.880Z,16.35
2022-09-09T09:42:58.902Z,16.46
2022-09-09T10:02:58.888Z,16.27
2022-09-09T10:12:58.852Z,16.19
2022-09-09T10:22:58.843Z,16.43
2022-09-09T10:32:58.875Z,16.48
2022-09-09T10:42:58.833Z,16.58
2022-09-09T10:52:58.810Z,16.72
2022-09-09T11:02:58.787Z,16.58
2022-09-09T11:12:58.788Z,16.64
2022-09-09T11:22:58.803Z,17.02
2022-09-09T11:32:58.754Z,17.03
2022-09-09T11:42:58.770Z,16.81
2022-09-09T11:52:58.723Z,16.72
2022-09-09T12:02:58.764Z,16.6
2022-09-09T12:12:58.723Z,16.48
2022-09-09T12:22:58.753Z,16.48
2022-09-09T12:32:58.693Z,17.15
2022-09-09T12:42:58.719Z,18.06
2022-09-09T12:52:58.699Z,17.64
2022-09-09T13:02:58.691Z,17.85
2022-09-09T13:12:58.651Z,17.7
2022-09-09T13:22:58.675Z,17.5
2022-09-09T13:32:58.646Z,17.31
2022-09-09T13:42:58.655Z,17.63
2022-09-09T13:52:58.631Z,17.49
2022-09-09T14:02:58.662Z,17.44
2022-09-09T14:12:58.578Z,17.23
2022-09-09T14:23:02.833Z,16.77
2022-09-09T14:32:58.583Z,16.48
2022-09-09T14:42:58.616Z,16.38
2022-09-09T14:52:58.566Z,16.37
2022-09-09T15:02:58.699Z,16.09
2022-09-09T15:12:58.561Z,15.87
2022-09-09T15:22:58.583Z,15.59
2022-09-09T15:32:58.536Z,15.44
2022-09-09T15:42:58.568Z,15.4
2022-09-09T15:52:58.510Z,15.42
2022-09-09T16:02:58.605Z,15.31
2022-09-09T16:12:58.516Z,15.19
2022-09-09T16:22:58.524Z,15.18
2022-09-09T16:32:58.865Z,15.17
2022-09-09T16:42:58.501Z,15.15
2022-09-09T16:52:58.478Z,15.05
2022-09-09T17:02:58.538Z,14.96
2022-09-09T17:12:58.460Z,14.95
2022-09-09T17:22:58.487Z,14.99
2022-09-09T17:32:58.435Z,14.89
2022-09-09T17:42:58.460Z,14.9
2022-09-09T17:52:58.447Z,14.89
2022-09-09T18:02:58.482Z,14.85
2022-09-09T18:12:58.426Z,14.79
2022-09-09T18:22:58.433Z,14.8
2022-09-09T18:32:58.389Z,14.8
2022-09-09T18:42:58.406Z,14.76
2022-09-09T18:52:58.368Z,14.81
2022-09-09T19:02:58.414Z,14.87
2022-09-09T19:12:58.348Z,14.81
2022-09-09T19:22:58.535Z,14.8
2022-09-09T19:32:58.351Z,14.77
2022-09-09T19:42:58.388Z,14.69
2022-09-09T19:52:58.321Z,14.66
2022-09-09T20:03:17.966Z,14.56
2022-09-09T20:12:58.316Z,14.58
2022-09-09T20:22:58.323Z,14.55
2022-09-09T20:32:58.272Z,14.47
2022-09-09T20:42:58.329Z,14.44
2022-09-09T20:52:58.293Z,14.45
2022-09-09T21:02:58.305Z,14.33
2022-09-09T21:12:58.273Z,14.29
2022-09-09T21:22:58.288Z,14.21
2022-09-09T21:32:58.248Z,14.23
2022-09-09T21:42:58.264Z,14.28
2022-09-09T21:52:58.233Z,14.21
2022-09-09T22:12:58.248Z,14.18
2022-09-09T22:22:58.224Z,14.17
2022-09-09T22:32:58.216Z,14.13
2022-09-09T22:42:58.192Z,14.12
2022-09-09T22:52:58.181Z,14.06
2022-09-09T23:02:58.192Z,14.01
2022-09-09T23:12:58.197Z,13.94
2022-09-09T23:22:58.174Z,13.89
2022-09-09T23:33:08.857Z,13.85
2022-09-09T23:42:58.086Z,13.84
2022-09-09T23:52:58.173Z,13.7
